logo
Search for airport 
image banner adimage banner adimage banner ad
image banner ad

HKMP - Manda Point

Located in , Kenya

ICAO - , IATA -

Data provided by Airmate  

General information

Coordinates: S2°13'44" E40°58'17"
Elevation is 12 feet MSL.
 
View others Airports in Coast Province

Operational data

Special qualification required
Current time UTC:
Current local time:
Weather at : HKLU - Lamu Manda ( 7 km )
METAR: HKLU 180800Z 00000KT 9999 SHRA FEW024CB 0VC024 27/24 Q1012
View NOTAMs / SUP AIP / TFR affecting this airport [VIEW]
Communications frequencies: [VIEW]

Runways:

RWY identifierQFULength (ft)Width (ft)SurfaceLDA (ft)
1100UNK
2900UNK

Airport contact information

Address: Kenya

Satellite view of HKMP